sensor_id;sensor_type;location;lat;lon;timestamp;P1;durP1;ratioP1;P2;durP2;ratioP2
25567;SDS011;13455;51.480;7.594;2022-09-23T00:00:39;5.13;;;2.30;;
25567;SDS011;13455;51.480;7.594;2022-09-23T00:03:05;5.10;;;2.33;;
25567;SDS011;13455;51.480;7.594;2022-09-23T00:05:31;4.77;;;2.13;;
25567;SDS011;13455;51.480;7.594;2022-09-23T00:07:57;5.20;;;2.10;;
25567;SDS011;13455;51.480;7.594;2022-09-23T00:10:24;4.35;;;2.15;;
25567;SDS011;13455;51.480;7.594;2022-09-23T00:12:50;5.68;;;2.10;;
25567;SDS011;13455;51.480;7.594;2022-09-23T00:15:17;5.55;;;2.10;;
25567;SDS011;13455;51.480;7.594;2022-09-23T00:17:43;6.75;;;2.50;;
25567;SDS011;13455;51.480;7.594;2022-09-23T00:20:09;4.28;;;2.20;;
25567;SDS011;13455;51.480;7.594;2022-09-23T00:22:35;5.03;;;2.25;;
25567;SDS011;13455;51.480;7.594;2022-09-23T00:25:05;4.03;;;2.20;;
25567;SDS011;13455;51.480;7.594;2022-09-23T00:27:33;6.15;;;2.67;;
25567;SDS011;13455;51.480;7.594;2022-09-23T00:29:59;5.90;;;2.42;;
25567;SDS011;13455;51.480;7.594;2022-09-23T00:32:26;5.03;;;2.33;;
25567;SDS011;13455;51.480;7.594;2022-09-23T00:34:51;5.40;;;2.47;;
25567;SDS011;13455;51.480;7.594;2022-09-23T00:37:18;4.00;;;2.30;;
25567;SDS011;13455;51.480;7.594;2022-09-23T00:39:44;4.97;;;2.10;;
25567;SDS011;13455;51.480;7.594;2022-09-23T00:42:12;5.88;;;2.40;;
25567;SDS011;13455;51.480;7.594;2022-09-23T00:52:41;5.05;;;2.10;;
25567;SDS011;13455;51.480;7.594;2022-09-23T00:55:10;4.53;;;2.30;;
25567;SDS011;13455;51.480;7.594;2022-09-23T00:57:41;3.72;;;2.00;;
25567;SDS011;13455;51.480;7.594;2022-09-23T01:00:09;5.00;;;2.10;;
25567;SDS011;13455;51.480;7.594;2022-09-23T01:02:35;4.38;;;2.13;;
25567;SDS011;13455;51.480;7.594;2022-09-23T01:05:02;4.68;;;2.10;;
25567;SDS011;13455;51.480;7.594;2022-09-23T01:07:28;4.03;;;2.10;;
25567;SDS011;13455;51.480;7.594;2022-09-23T01:09:54;5.80;;;2.33;;
25567;SDS011;13455;51.480;7.594;2022-09-23T01:12:29;5.15;;;2.30;;
25567;SDS011;13455;51.480;7.594;2022-09-23T01:17:46;5.60;;;2.38;;
25567;SDS011;13455;51.480;7.594;2022-09-23T01:26:27;6.88;;;2.30;;
25567;SDS011;13455;51.480;7.594;2022-09-23T01:40:21;4.50;;;2.00;;
25567;SDS011;13455;51.480;7.594;2022-09-23T01:43:09;5.17;;;1.90;;
25567;SDS011;13455;51.480;7.594;2022-09-23T01:45:44;5.82;;;2.22;;
25567;SDS011;13455;51.480;7.594;2022-09-23T01:53:40;3.70;;;2.05;;
25567;SDS011;13455;51.480;7.594;2022-09-23T01:56:26;4.28;;;2.10;;
25567;SDS011;13455;51.480;7.594;2022-09-23T01:59:16;4.47;;;2.07;;
25567;SDS011;13455;51.480;7.594;2022-09-23T02:04:21;4.22;;;2.03;;
25567;SDS011;13455;51.480;7.594;2022-09-23T02:06:51;4.30;;;2.00;;
25567;SDS011;13455;51.480;7.594;2022-09-23T02:09:23;3.72;;;2.00;;
25567;SDS011;13455;51.480;7.594;2022-09-23T02:11:55;5.13;;;2.28;;
25567;SDS011;13455;51.480;7.594;2022-09-23T02:14:32;5.25;;;2.13;;
25567;SDS011;13455;51.480;7.594;2022-09-23T02:17:07;4.03;;;2.10;;
25567;SDS011;13455;51.480;7.594;2022-09-23T02:19:41;3.75;;;2.10;;
25567;SDS011;13455;51.480;7.594;2022-09-23T02:22:14;7.70;;;2.90;;
25567;SDS011;13455;51.480;7.594;2022-09-23T02:24:58;5.22;;;2.10;;
25567;SDS011;13455;51.480;7.594;2022-09-23T02:30:20;5.00;;;2.30;;
25567;SDS011;13455;51.480;7.594;2022-09-23T02:35:33;4.78;;;2.03;;
25567;SDS011;13455;51.480;7.594;2022-09-23T02:40:52;4.60;;;2.08;;
25567;SDS011;13455;51.480;7.594;2022-09-23T02:46:10;4.40;;;2.30;;
25567;SDS011;13455;51.480;7.594;2022-09-23T02:49:18;4.47;;;2.35;;
25567;SDS011;13455;51.480;7.594;2022-09-23T02:51:38;5.07;;;2.30;;
25567;SDS011;13455;51.480;7.594;2022-09-23T02:54:05;5.28;;;2.30;;
25567;SDS011;13455;51.480;7.594;2022-09-23T02:56:34;4.32;;;2.20;;
25567;SDS011;13455;51.480;7.594;2022-09-23T02:59:01;5.43;;;2.35;;
25567;SDS011;13455;51.480;7.594;2022-09-23T03:23:01;5.50;;;2.42;;
25567;SDS011;13455;51.480;7.594;2022-09-23T03:25:32;5.65;;;2.10;;
25567;SDS011;13455;51.480;7.594;2022-09-23T03:28:02;4.50;;;2.40;;
25567;SDS011;13455;51.480;7.594;2022-09-23T03:30:31;5.30;;;2.30;;
25567;SDS011;13455;51.480;7.594;2022-09-23T03:33:01;5.10;;;2.45;;
25567;SDS011;13455;51.480;7.594;2022-09-23T03:35:30;4.90;;;2.47;;
25567;SDS011;13455;51.480;7.594;2022-09-23T03:38:19;4.47;;;2.30;;
25567;SDS011;13455;51.480;7.594;2022-09-23T03:40:49;4.88;;;2.38;;
25567;SDS011;13455;51.480;7.594;2022-09-23T03:43:18;4.90;;;2.60;;
25567;SDS011;13455;51.480;7.594;2022-09-23T03:45:44;6.20;;;2.40;;
25567;SDS011;13455;51.480;7.594;2022-09-23T03:48:10;6.03;;;2.45;;
25567;SDS011;13455;51.480;7.594;2022-09-23T03:50:39;5.60;;;2.50;;
25567;SDS011;13455;51.480;7.594;2022-09-23T03:53:04;5.45;;;2.53;;
25567;SDS011;13455;51.480;7.594;2022-09-23T03:55:30;4.85;;;2.33;;
25567;SDS011;13455;51.480;7.594;2022-09-23T03:57:56;5.75;;;2.60;;
25567;SDS011;13455;51.480;7.594;2022-09-23T04:00:24;4.70;;;2.50;;
25567;SDS011;13455;51.480;7.594;2022-09-23T04:02:50;4.65;;;2.50;;
25567;SDS011;13455;51.480;7.594;2022-09-23T04:05:16;5.50;;;2.65;;
25567;SDS011;13455;51.480;7.594;2022-09-23T04:07:42;5.85;;;2.65;;
25567;SDS011;13455;51.480;7.594;2022-09-23T04:10:08;7.20;;;2.70;;
25567;SDS011;13455;51.480;7.594;2022-09-23T04:12:34;5.13;;;2.50;;
25567;SDS011;13455;51.480;7.594;2022-09-23T04:15:00;6.13;;;2.40;;
25567;SDS011;13455;51.480;7.594;2022-09-23T04:17:26;4.65;;;2.55;;
25567;SDS011;13455;51.480;7.594;2022-09-23T04:19:52;7.22;;;2.70;;
25567;SDS011;13455;51.480;7.594;2022-09-23T04:22:17;6.43;;;2.47;;
25567;SDS011;13455;51.480;7.594;2022-09-23T04:24:43;4.45;;;2.47;;
25567;SDS011;13455;51.480;7.594;2022-09-23T04:27:09;5.72;;;2.80;;
25567;SDS011;13455;51.480;7.594;2022-09-23T04:29:34;4.82;;;2.50;;
25567;SDS011;13455;51.480;7.594;2022-09-23T04:32:00;5.53;;;2.77;;
25567;SDS011;13455;51.480;7.594;2022-09-23T04:34:25;5.07;;;2.80;;
25567;SDS011;13455;51.480;7.594;2022-09-23T04:36:51;5.32;;;2.78;;
25567;SDS011;13455;51.480;7.594;2022-09-23T04:39:17;6.43;;;2.80;;
25567;SDS011;13455;51.480;7.594;2022-09-23T04:41:43;5.85;;;2.80;;
25567;SDS011;13455;51.480;7.594;2022-09-23T04:44:10;7.32;;;3.50;;
25567;SDS011;13455;51.480;7.594;2022-09-23T04:46:36;6.50;;;3.50;;
25567;SDS011;13455;51.480;7.594;2022-09-23T04:49:03;7.32;;;3.90;;
25567;SDS011;13455;51.480;7.594;2022-09-23T04:51:30;8.30;;;3.90;;
25567;SDS011;13455;51.480;7.594;2022-09-23T04:53:56;8.77;;;4.17;;
25567;SDS011;13455;51.480;7.594;2022-09-23T04:56:25;8.30;;;4.78;;
25567;SDS011;13455;51.480;7.594;2022-09-23T04:58:52;9.13;;;4.60;;
25567;SDS011;13455;51.480;7.594;2022-09-23T05:01:22;8.18;;;4.47;;
25567;SDS011;13455;51.480;7.594;2022-09-23T05:03:49;7.97;;;4.40;;
25567;SDS011;13455;51.480;7.594;2022-09-23T05:06:15;10.07;;;5.03;;
25567;SDS011;13455;51.480;7.594;2022-09-23T05:08:41;11.27;;;5.10;;
25567;SDS011;13455;51.480;7.594;2022-09-23T05:11:12;8.05;;;5.07;;
25567;SDS011;13455;51.480;7.594;2022-09-23T05:13:37;9.35;;;5.50;;
25567;SDS011;13455;51.480;7.594;2022-09-23T05:16:04;9.13;;;4.60;;
25567;SDS011;13455;51.480;7.594;2022-09-23T05:18:33;7.10;;;3.92;;
25567;SDS011;13455;51.480;7.594;2022-09-23T05:20:59;6.53;;;3.35;;
25567;SDS011;13455;51.480;7.594;2022-09-23T05:23:25;6.40;;;3.38;;
25567;SDS011;13455;51.480;7.594;2022-09-23T05:25:59;6.45;;;3.20;;
25567;SDS011;13455;51.480;7.594;2022-09-23T05:28:26;7.75;;;3.00;;
25567;SDS011;13455;51.480;7.594;2022-09-23T05:33:45;6.05;;;2.92;;
25567;SDS011;13455;51.480;7.594;2022-09-23T05:36:13;4.60;;;2.93;;
25567;SDS011;13455;51.480;7.594;2022-09-23T05:38:41;5.83;;;2.90;;
25567;SDS011;13455;51.480;7.594;2022-09-23T05:41:08;6.88;;;3.25;;
25567;SDS011;13455;51.480;7.594;2022-09-23T05:43:36;6.07;;;2.87;;
25567;SDS011;13455;51.480;7.594;2022-09-23T05:46:06;5.90;;;2.92;;
25567;SDS011;13455;51.480;7.594;2022-09-23T05:48:40;7.55;;;3.40;;
25567;SDS011;13455;51.480;7.594;2022-09-23T05:51:07;5.65;;;3.20;;
25567;SDS011;13455;51.480;7.594;2022-09-23T05:53:36;6.72;;;3.22;;
25567;SDS011;13455;51.480;7.594;2022-09-23T05:56:03;7.25;;;3.47;;
25567;SDS011;13455;51.480;7.594;2022-09-23T05:58:30;7.55;;;3.70;;
25567;SDS011;13455;51.480;7.594;2022-09-23T06:00:56;7.57;;;3.88;;
25567;SDS011;13455;51.480;7.594;2022-09-23T06:03:23;8.63;;;4.10;;
25567;SDS011;13455;51.480;7.594;2022-09-23T06:05:55;7.95;;;3.85;;
25567;SDS011;13455;51.480;7.594;2022-09-23T06:08:21;9.05;;;4.18;;
25567;SDS011;13455;51.480;7.594;2022-09-23T06:10:47;10.93;;;4.15;;
25567;SDS011;13455;51.480;7.594;2022-09-23T06:13:14;8.68;;;3.78;;
25567;SDS011;13455;51.480;7.594;2022-09-23T06:15:42;8.15;;;3.80;;
25567;SDS011;13455;51.480;7.594;2022-09-23T06:18:08;6.95;;;3.70;;
25567;SDS011;13455;51.480;7.594;2022-09-23T06:20:35;10.43;;;3.78;;
25567;SDS011;13455;51.480;7.594;2022-09-23T06:23:02;7.68;;;3.75;;
25567;SDS011;13455;51.480;7.594;2022-09-23T06:25:29;7.65;;;3.30;;
25567;SDS011;13455;51.480;7.594;2022-09-23T06:27:58;8.35;;;3.63;;
25567;SDS011;13455;51.480;7.594;2022-09-23T06:30:24;6.13;;;3.72;;
25567;SDS011;13455;51.480;7.594;2022-09-23T06:32:51;9.40;;;4.40;;
25567;SDS011;13455;51.480;7.594;2022-09-23T06:35:19;8.07;;;3.58;;
25567;SDS011;13455;51.480;7.594;2022-09-23T06:37:46;6.88;;;3.50;;
25567;SDS011;13455;51.480;7.594;2022-09-23T06:40:12;8.48;;;3.90;;
25567;SDS011;13455;51.480;7.594;2022-09-23T06:42:41;7.68;;;3.85;;
25567;SDS011;13455;51.480;7.594;2022-09-23T06:45:08;9.25;;;3.88;;
25567;SDS011;13455;51.480;7.594;2022-09-23T06:47:37;12.00;;;4.43;;
25567;SDS011;13455;51.480;7.594;2022-09-23T06:50:03;9.25;;;4.28;;
25567;SDS011;13455;51.480;7.594;2022-09-23T06:52:30;9.10;;;4.30;;
25567;SDS011;13455;51.480;7.594;2022-09-23T06:54:56;8.65;;;3.65;;
25567;SDS011;13455;51.480;7.594;2022-09-23T06:57:22;8.65;;;4.03;;
25567;SDS011;13455;51.480;7.594;2022-09-23T06:59:48;9.40;;;4.03;;
25567;SDS011;13455;51.480;7.594;2022-09-23T07:02:14;10.27;;;4.30;;
25567;SDS011;13455;51.480;7.594;2022-09-23T07:04:40;8.48;;;4.10;;
25567;SDS011;13455;51.480;7.594;2022-09-23T07:07:05;9.82;;;4.18;;
25567;SDS011;13455;51.480;7.594;2022-09-23T07:09:31;8.90;;;3.95;;
25567;SDS011;13455;51.480;7.594;2022-09-23T07:11:57;10.05;;;4.00;;
25567;SDS011;13455;51.480;7.594;2022-09-23T07:14:22;11.77;;;3.78;;
25567;SDS011;13455;51.480;7.594;2022-09-23T07:16:48;10.13;;;3.67;;
25567;SDS011;13455;51.480;7.594;2022-09-23T07:19:14;10.95;;;3.80;;
25567;SDS011;13455;51.480;7.594;2022-09-23T07:21:40;8.05;;;3.35;;
25567;SDS011;13455;51.480;7.594;2022-09-23T07:24:06;6.00;;;3.00;;
25567;SDS011;13455;51.480;7.594;2022-09-23T07:26:32;9.00;;;3.30;;
25567;SDS011;13455;51.480;7.594;2022-09-23T07:28:58;8.98;;;3.15;;
25567;SDS011;13455;51.480;7.594;2022-09-23T07:31:34;8.27;;;3.33;;
25567;SDS011;13455;51.480;7.594;2022-09-23T07:34:00;9.27;;;3.40;;
25567;SDS011;13455;51.480;7.594;2022-09-23T07:36:26;7.57;;;3.50;;
25567;SDS011;13455;51.480;7.594;2022-09-23T07:38:56;6.85;;;3.08;;
25567;SDS011;13455;51.480;7.594;2022-09-23T07:41:27;8.20;;;3.42;;
25567;SDS011;13455;51.480;7.594;2022-09-23T07:43:55;8.60;;;3.30;;
25567;SDS011;13455;51.480;7.594;2022-09-23T07:46:23;7.35;;;3.22;;
25567;SDS011;13455;51.480;7.594;2022-09-23T07:48:50;5.88;;;3.10;;
25567;SDS011;13455;51.480;7.594;2022-09-23T07:51:21;6.40;;;3.20;;
25567;SDS011;13455;51.480;7.594;2022-09-23T07:53:49;8.30;;;3.08;;
25567;SDS011;13455;51.480;7.594;2022-09-23T07:56:15;5.72;;;2.75;;
25567;SDS011;13455;51.480;7.594;2022-09-23T07:58:43;6.63;;;2.88;;
25567;SDS011;13455;51.480;7.594;2022-09-23T08:01:10;7.90;;;2.67;;
25567;SDS011;13455;51.480;7.594;2022-09-23T08:03:36;6.13;;;2.75;;
25567;SDS011;13455;51.480;7.594;2022-09-23T08:06:09;5.47;;;2.67;;
25567;SDS011;13455;51.480;7.594;2022-09-23T08:08:36;5.93;;;2.72;;
25567;SDS011;13455;51.480;7.594;2022-09-23T08:11:10;6.90;;;2.63;;
25567;SDS011;13455;51.480;7.594;2022-09-23T08:13:37;4.60;;;2.60;;
25567;SDS011;13455;51.480;7.594;2022-09-23T08:16:02;6.60;;;2.50;;
25567;SDS011;13455;51.480;7.594;2022-09-23T08:18:28;5.83;;;2.43;;
25567;SDS011;13455;51.480;7.594;2022-09-23T08:20:54;5.23;;;2.47;;
25567;SDS011;13455;51.480;7.594;2022-09-23T08:23:19;5.32;;;2.70;;
25567;SDS011;13455;51.480;7.594;2022-09-23T08:25:45;4.53;;;2.60;;
25567;SDS011;13455;51.480;7.594;2022-09-23T08:28:15;6.13;;;2.50;;
25567;SDS011;13455;51.480;7.594;2022-09-23T08:30:43;5.55;;;2.40;;
25567;SDS011;13455;51.480;7.594;2022-09-23T08:33:10;5.47;;;2.43;;
25567;SDS011;13455;51.480;7.594;2022-09-23T08:35:36;6.03;;;2.57;;
25567;SDS011;13455;51.480;7.594;2022-09-23T08:38:02;5.70;;;2.60;;
25567;SDS011;13455;51.480;7.594;2022-09-23T08:40:28;6.72;;;2.45;;
25567;SDS011;13455;51.480;7.594;2022-09-23T08:42:54;6.38;;;2.55;;
25567;SDS011;13455;51.480;7.594;2022-09-23T08:45:24;3.63;;;2.50;;
25567;SDS011;13455;51.480;7.594;2022-09-23T08:50:30;5.32;;;2.60;;
25567;SDS011;13455;51.480;7.594;2022-09-23T08:53:39;4.78;;;2.63;;
25567;SDS011;13455;51.480;7.594;2022-09-23T08:55:59;4.90;;;2.50;;
25567;SDS011;13455;51.480;7.594;2022-09-23T09:01:26;6.05;;;2.70;;
25567;SDS011;13455;51.480;7.594;2022-09-23T09:03:57;5.00;;;2.60;;
25567;SDS011;13455;51.480;7.594;2022-09-23T09:08:56;5.60;;;2.53;;
25567;SDS011;13455;51.480;7.594;2022-09-23T09:11:26;5.63;;;2.73;;
25567;SDS011;13455;51.480;7.594;2022-09-23T09:14:11;5.47;;;2.40;;
25567;SDS011;13455;51.480;7.594;2022-09-23T09:17:04;6.00;;;2.70;;
25567;SDS011;13455;51.480;7.594;2022-09-23T09:22:06;7.18;;;2.40;;
25567;SDS011;13455;51.480;7.594;2022-09-23T09:24:39;8.50;;;2.42;;
25567;SDS011;13455;51.480;7.594;2022-09-23T09:27:10;5.00;;;2.40;;
25567;SDS011;13455;51.480;7.594;2022-09-23T09:29:40;5.22;;;2.20;;
25567;SDS011;13455;51.480;7.594;2022-09-23T09:32:11;5.23;;;2.40;;
25567;SDS011;13455;51.480;7.594;2022-09-23T09:34:50;3.20;;;2.13;;
25567;SDS011;13455;51.480;7.594;2022-09-23T09:37:35;4.95;;;2.33;;
25567;SDS011;13455;51.480;7.594;2022-09-23T09:40:12;4.18;;;2.20;;
25567;SDS011;13455;51.480;7.594;2022-09-23T09:42:41;4.95;;;2.55;;
25567;SDS011;13455;51.480;7.594;2022-09-23T09:50:41;5.75;;;2.40;;
25567;SDS011;13455;51.480;7.594;2022-09-23T09:55:39;4.45;;;2.58;;
25567;SDS011;13455;51.480;7.594;2022-09-23T09:58:05;4.43;;;2.35;;
25567;SDS011;13455;51.480;7.594;2022-09-23T10:00:42;5.18;;;2.30;;
25567;SDS011;13455;51.480;7.594;2022-09-23T10:08:27;6.03;;;2.70;;
25567;SDS011;13455;51.480;7.594;2022-09-23T10:13:25;5.75;;;2.55;;
25567;SDS011;13455;51.480;7.594;2022-09-23T10:15:53;5.60;;;2.22;;
25567;SDS011;13455;51.480;7.594;2022-09-23T10:21:01;4.80;;;1.80;;
25567;SDS011;13455;51.480;7.594;2022-09-23T10:23:31;5.40;;;2.33;;
25567;SDS011;13455;51.480;7.594;2022-09-23T10:25:59;3.63;;;1.95;;
25567;SDS011;13455;51.480;7.594;2022-09-23T10:28:30;5.15;;;2.10;;
25567;SDS011;13455;51.480;7.594;2022-09-23T10:31:04;3.30;;;1.75;;
25567;SDS011;13455;51.480;7.594;2022-09-23T10:33:30;3.97;;;1.80;;
25567;SDS011;13455;51.480;7.594;2022-09-23T10:35:56;3.83;;;1.70;;
25567;SDS011;13455;51.480;7.594;2022-09-23T10:38:22;4.70;;;1.77;;
25567;SDS011;13455;51.480;7.594;2022-09-23T10:40:49;3.20;;;1.60;;
25567;SDS011;13455;51.480;7.594;2022-09-23T10:46:50;4.65;;;1.70;;
25567;SDS011;13455;51.480;7.594;2022-09-23T11:08:05;4.40;;;1.80;;
25567;SDS011;13455;51.480;7.594;2022-09-23T11:13:14;3.75;;;1.80;;
25567;SDS011;13455;51.480;7.594;2022-09-23T11:20:46;3.37;;;1.67;;
25567;SDS011;13455;51.480;7.594;2022-09-23T11:37:13;3.50;;;1.50;;
25567;SDS011;13455;51.480;7.594;2022-09-23T11:39:44;3.65;;;1.83;;
25567;SDS011;13455;51.480;7.594;2022-09-23T11:42:18;3.15;;;1.60;;
25567;SDS011;13455;51.480;7.594;2022-09-23T11:44:50;6.50;;;1.80;;
25567;SDS011;13455;51.480;7.594;2022-09-23T11:47:25;4.38;;;1.67;;
25567;SDS011;13455;51.480;7.594;2022-09-23T11:50:08;3.70;;;1.33;;
25567;SDS011;13455;51.480;7.594;2022-09-23T11:52:40;3.15;;;1.42;;
25567;SDS011;13455;51.480;7.594;2022-09-23T11:55:17;4.57;;;1.90;;
25567;SDS011;13455;51.480;7.594;2022-09-23T11:57:47;3.97;;;1.70;;
25567;SDS011;13455;51.480;7.594;2022-09-23T12:00:18;3.00;;;1.60;;
25567;SDS011;13455;51.480;7.594;2022-09-23T12:02:58;3.75;;;1.63;;
25567;SDS011;13455;51.480;7.594;2022-09-23T12:05:49;2.97;;;1.58;;
25567;SDS011;13455;51.480;7.594;2022-09-23T12:10:59;3.23;;;1.30;;
25567;SDS011;13455;51.480;7.594;2022-09-23T12:21:44;3.65;;;1.30;;
25567;SDS011;13455;51.480;7.594;2022-09-23T12:27:00;3.22;;;1.25;;
25567;SDS011;13455;51.480;7.594;2022-09-23T12:29:30;5.03;;;1.45;;
25567;SDS011;13455;51.480;7.594;2022-09-23T12:31:57;2.70;;;1.20;;
25567;SDS011;13455;51.480;7.594;2022-09-23T12:34:26;2.03;;;1.30;;
25567;SDS011;13455;51.480;7.594;2022-09-23T12:37:02;2.35;;;1.20;;
25567;SDS011;13455;51.480;7.594;2022-09-23T12:39:29;2.58;;;1.20;;
25567;SDS011;13455;51.480;7.594;2022-09-23T12:42:04;3.65;;;1.10;;
25567;SDS011;13455;51.480;7.594;2022-09-23T12:44:39;2.47;;;1.20;;
25567;SDS011;13455;51.480;7.594;2022-09-23T12:47:51;2.20;;;1.30;;
25567;SDS011;13455;51.480;7.594;2022-09-23T12:49:53;3.40;;;1.30;;
25567;SDS011;13455;51.480;7.594;2022-09-23T12:54:50;4.85;;;1.20;;
25567;SDS011;13455;51.480;7.594;2022-09-23T13:02:36;3.00;;;1.17;;
25567;SDS011;13455;51.480;7.594;2022-09-23T13:05:21;4.07;;;1.40;;
25567;SDS011;13455;51.480;7.594;2022-09-23T13:08:08;2.45;;;1.15;;
25567;SDS011;13455;51.480;7.594;2022-09-23T13:10:43;3.17;;;1.02;;
25567;SDS011;13455;51.480;7.594;2022-09-23T13:13:14;2.45;;;1.00;;
25567;SDS011;13455;51.480;7.594;2022-09-23T13:16:25;2.67;;;1.05;;
25567;SDS011;13455;51.480;7.594;2022-09-23T13:19:05;2.80;;;1.10;;
25567;SDS011;13455;51.480;7.594;2022-09-23T13:24:51;3.45;;;1.20;;
25567;SDS011;13455;51.480;7.594;2022-09-23T13:27:23;2.90;;;1.20;;
25567;SDS011;13455;51.480;7.594;2022-09-23T13:32:39;2.90;;;1.15;;
25567;SDS011;13455;51.480;7.594;2022-09-23T13:40:26;3.13;;;1.20;;
25567;SDS011;13455;51.480;7.594;2022-09-23T13:45:22;2.10;;;1.17;;
25567;SDS011;13455;51.480;7.594;2022-09-23T13:47:49;4.97;;;1.40;;
25567;SDS011;13455;51.480;7.594;2022-09-23T13:50:20;3.25;;;1.35;;
25567;SDS011;13455;51.480;7.594;2022-09-23T13:52:52;3.50;;;1.50;;
25567;SDS011;13455;51.480;7.594;2022-09-23T14:00:43;3.25;;;1.20;;
25567;SDS011;13455;51.480;7.594;2022-09-23T14:03:26;2.73;;;1.10;;
25567;SDS011;13455;51.480;7.594;2022-09-23T14:05:54;4.05;;;1.30;;
25567;SDS011;13455;51.480;7.594;2022-09-23T14:08:20;3.03;;;1.20;;
25567;SDS011;13455;51.480;7.594;2022-09-23T14:10:47;2.38;;;1.27;;
25567;SDS011;13455;51.480;7.594;2022-09-23T14:13:17;3.38;;;1.17;;
25567;SDS011;13455;51.480;7.594;2022-09-23T14:15:45;3.40;;;1.42;;
25567;SDS011;13455;51.480;7.594;2022-09-23T14:18:17;3.50;;;1.30;;
25567;SDS011;13455;51.480;7.594;2022-09-23T14:20:44;4.32;;;1.20;;
25567;SDS011;13455;51.480;7.594;2022-09-23T14:23:11;3.57;;;1.40;;
25567;SDS011;13455;51.480;7.594;2022-09-23T14:25:41;3.23;;;1.37;;
25567;SDS011;13455;51.480;7.594;2022-09-23T14:28:12;2.85;;;1.40;;
25567;SDS011;13455;51.480;7.594;2022-09-23T14:30:39;3.67;;;1.70;;
25567;SDS011;13455;51.480;7.594;2022-09-23T14:33:12;3.80;;;1.40;;
25567;SDS011;13455;51.480;7.594;2022-09-23T14:35:40;2.95;;;1.38;;
25567;SDS011;13455;51.480;7.594;2022-09-23T14:38:08;2.95;;;1.20;;
25567;SDS011;13455;51.480;7.594;2022-09-23T14:43:39;3.72;;;1.40;;
25567;SDS011;13455;51.480;7.594;2022-09-23T14:46:11;3.47;;;1.50;;
25567;SDS011;13455;51.480;7.594;2022-09-23T14:48:40;4.53;;;1.30;;
25567;SDS011;13455;51.480;7.594;2022-09-23T14:51:07;2.77;;;1.07;;
25567;SDS011;13455;51.480;7.594;2022-09-23T14:53:40;3.10;;;1.13;;
25567;SDS011;13455;51.480;7.594;2022-09-23T15:03:55;2.25;;;1.08;;
25567;SDS011;13455;51.480;7.594;2022-09-23T15:09:25;3.47;;;1.10;;
25567;SDS011;13455;51.480;7.594;2022-09-23T15:11:55;2.33;;;1.08;;
25567;SDS011;13455;51.480;7.594;2022-09-23T15:14:25;3.72;;;1.10;;
25567;SDS011;13455;51.480;7.594;2022-09-23T15:16:52;4.43;;;1.20;;
25567;SDS011;13455;51.480;7.594;2022-09-23T15:19:18;2.90;;;1.10;;
25567;SDS011;13455;51.480;7.594;2022-09-23T15:21:46;3.22;;;1.10;;
25567;SDS011;13455;51.480;7.594;2022-09-23T15:24:36;3.15;;;1.00;;
25567;SDS011;13455;51.480;7.594;2022-09-23T15:27:08;2.67;;;1.10;;
25567;SDS011;13455;51.480;7.594;2022-09-23T15:29:35;4.03;;;1.10;;
25567;SDS011;13455;51.480;7.594;2022-09-23T15:32:01;2.65;;;1.13;;
25567;SDS011;13455;51.480;7.594;2022-09-23T15:34:27;4.45;;;1.25;;
25567;SDS011;13455;51.480;7.594;2022-09-23T15:36:53;3.35;;;1.10;;
25567;SDS011;13455;51.480;7.594;2022-09-23T15:39:20;3.45;;;1.20;;
25567;SDS011;13455;51.480;7.594;2022-09-23T15:41:46;3.47;;;1.20;;
25567;SDS011;13455;51.480;7.594;2022-09-23T15:44:13;3.75;;;1.20;;
25567;SDS011;13455;51.480;7.594;2022-09-23T15:46:43;4.20;;;1.30;;
25567;SDS011;13455;51.480;7.594;2022-09-23T15:49:14;2.63;;;1.10;;
25567;SDS011;13455;51.480;7.594;2022-09-23T15:51:42;2.38;;;1.13;;
25567;SDS011;13455;51.480;7.594;2022-09-23T15:54:11;3.97;;;1.60;;
25567;SDS011;13455;51.480;7.594;2022-09-23T15:56:37;2.77;;;1.20;;
25567;SDS011;13455;51.480;7.594;2022-09-23T15:59:03;3.85;;;1.33;;
25567;SDS011;13455;51.480;7.594;2022-09-23T16:01:30;3.00;;;1.33;;
25567;SDS011;13455;51.480;7.594;2022-09-23T16:03:57;3.63;;;1.40;;
25567;SDS011;13455;51.480;7.594;2022-09-23T16:06:28;5.13;;;1.70;;
25567;SDS011;13455;51.480;7.594;2022-09-23T16:08:54;3.15;;;1.35;;
25567;SDS011;13455;51.480;7.594;2022-09-23T16:11:23;3.60;;;1.55;;
25567;SDS011;13455;51.480;7.594;2022-09-23T16:13:50;5.10;;;1.60;;
25567;SDS011;13455;51.480;7.594;2022-09-23T16:16:16;3.70;;;1.60;;
25567;SDS011;13455;51.480;7.594;2022-09-23T16:18:45;4.07;;;1.65;;
25567;SDS011;13455;51.480;7.594;2022-09-23T16:21:13;4.95;;;2.17;;
25567;SDS011;13455;51.480;7.594;2022-09-23T16:23:40;5.00;;;2.38;;
25567;SDS011;13455;51.480;7.594;2022-09-23T16:28:54;5.78;;;1.92;;
25567;SDS011;13455;51.480;7.594;2022-09-23T16:31:21;5.38;;;1.92;;
25567;SDS011;13455;51.480;7.594;2022-09-23T16:33:53;4.73;;;1.70;;
25567;SDS011;13455;51.480;7.594;2022-09-23T16:36:21;5.10;;;1.80;;
25567;SDS011;13455;51.480;7.594;2022-09-23T16:38:48;3.72;;;1.65;;
25567;SDS011;13455;51.480;7.594;2022-09-23T16:41:14;4.63;;;1.80;;
25567;SDS011;13455;51.480;7.594;2022-09-23T16:43:40;5.22;;;2.10;;
25567;SDS011;13455;51.480;7.594;2022-09-23T16:46:06;4.65;;;2.10;;
25567;SDS011;13455;51.480;7.594;2022-09-23T16:48:33;5.80;;;2.13;;
25567;SDS011;13455;51.480;7.594;2022-09-23T16:54:04;7.00;;;2.70;;
25567;SDS011;13455;51.480;7.594;2022-09-23T16:56:34;9.20;;;4.10;;
25567;SDS011;13455;51.480;7.594;2022-09-23T16:59:00;7.68;;;3.50;;
25567;SDS011;13455;51.480;7.594;2022-09-23T17:01:27;7.10;;;4.60;;
25567;SDS011;13455;51.480;7.594;2022-09-23T17:04:12;8.93;;;5.03;;
25567;SDS011;13455;51.480;7.594;2022-09-23T17:06:42;7.20;;;3.10;;
25567;SDS011;13455;51.480;7.594;2022-09-23T17:09:08;5.82;;;3.60;;
25567;SDS011;13455;51.480;7.594;2022-09-23T17:11:34;6.05;;;3.70;;
25567;SDS011;13455;51.480;7.594;2022-09-23T17:14:02;5.25;;;2.60;;
25567;SDS011;13455;51.480;7.594;2022-09-23T17:16:30;5.13;;;2.45;;
25567;SDS011;13455;51.480;7.594;2022-09-23T17:18:56;6.25;;;2.60;;
25567;SDS011;13455;51.480;7.594;2022-09-23T17:21:23;7.18;;;2.78;;
25567;SDS011;13455;51.480;7.594;2022-09-23T17:23:50;6.22;;;2.70;;
25567;SDS011;13455;51.480;7.594;2022-09-23T17:26:17;6.65;;;3.13;;
25567;SDS011;13455;51.480;7.594;2022-09-23T17:28:47;6.80;;;3.20;;
25567;SDS011;13455;51.480;7.594;2022-09-23T17:31:15;6.97;;;3.08;;
25567;SDS011;13455;51.480;7.594;2022-09-23T17:33:41;6.33;;;3.07;;
25567;SDS011;13455;51.480;7.594;2022-09-23T17:36:08;7.28;;;3.38;;
25567;SDS011;13455;51.480;7.594;2022-09-23T17:38:35;6.80;;;3.33;;
25567;SDS011;13455;51.480;7.594;2022-09-23T17:41:03;5.93;;;3.42;;
25567;SDS011;13455;51.480;7.594;2022-09-23T17:43:30;7.10;;;3.70;;
25567;SDS011;13455;51.480;7.594;2022-09-23T17:46:07;9.63;;;4.22;;
25567;SDS011;13455;51.480;7.594;2022-09-23T17:48:35;9.43;;;5.60;;
25567;SDS011;13455;51.480;7.594;2022-09-23T17:51:02;11.30;;;8.00;;
25567;SDS011;13455;51.480;7.594;2022-09-23T17:53:34;11.73;;;7.78;;
25567;SDS011;13455;51.480;7.594;2022-09-23T17:56:05;13.68;;;8.82;;
25567;SDS011;13455;51.480;7.594;2022-09-23T17:58:32;11.00;;;7.97;;
25567;SDS011;13455;51.480;7.594;2022-09-23T18:00:58;14.38;;;9.90;;
25567;SDS011;13455;51.480;7.594;2022-09-23T18:03:25;12.90;;;7.70;;
25567;SDS011;13455;51.480;7.594;2022-09-23T18:05:52;11.98;;;7.95;;
25567;SDS011;13455;51.480;7.594;2022-09-23T18:08:18;12.85;;;7.63;;
25567;SDS011;13455;51.480;7.594;2022-09-23T18:10:45;15.73;;;9.40;;
25567;SDS011;13455;51.480;7.594;2022-09-23T18:13:11;15.05;;;9.18;;
25567;SDS011;13455;51.480;7.594;2022-09-23T18:15:37;13.23;;;6.90;;
25567;SDS011;13455;51.480;7.594;2022-09-23T18:18:04;10.85;;;7.45;;
25567;SDS011;13455;51.480;7.594;2022-09-23T18:20:30;19.70;;;12.43;;
25567;SDS011;13455;51.480;7.594;2022-09-23T18:22:56;12.52;;;7.13;;